WBSB/BWN METAR and TAF weather

Enter ICAO airport designator
Station Type Date Time Source
WBSB METAR 2019/04/18 14:30 UTC NOAA

WBSB 181430Z 35002KT 9000 SCT015 FEW016CB BKN140 30/27 Q1010 NOSIG


Station Type Date Time Source
WBSB Decoded METAR 2019/04/18 14:30 UTC NOAA

Brunei Airport, Brunei (WBSB) 04-56N 114-56E 15M
Apr 18, 2019 - 10:30 AM EDT / 2019.04.18 1430 UTC
Wind: from the N (350 degrees) at 2 MPH (2 KT):0
Visibility: 5 mile(s):0
Sky conditions: mostly cloudy
Weather: Cumulonimbus clouds observed
Temperature: 86 F (30 C)
Heat index: 101.8 F (38.8 C):1
Dew Point: 80 F (27 C)
Relative Humidity: 84%
Pressure (altimeter): 29.83 in. Hg (1010 hPa)
ob: WBSB 181430Z 35002KT 9000 SCT015 FEW016CB BKN140 30/27 Q1010 NOSIG
cycle: 14

Station Type Date Time Source
WBSB TAF 2019/04/18 12:15 UTC NOAA

TAF WBSB 181100Z 1812/1918 24005KT 9999 SCT015 FEW016CB
TEMPO 1814/1818 6000 SHRA TSRA
BECMG 1820/1822 SCT014 FEW015CB

Example: see airport list